Time;durP1;ratioP1;P1;durP2;ratioP2;P2;SDS_P1;SDS_P2;PMS_P1;PMS_P2;Temp;Humidity;BMP_temperature;BMP_pressure;BME280_temperature;BME280_humidity;BME280_pressure;Samples;Min_cycle;Max_cycle;Signal;HPM_P1;HPM_P2
2021/04/01 00:01:46;;;;;;;;;;;;;;;5.67;100.00;100964.59;5051292;28;20029;-66
2021/04/01 00:04:12;;;;;;;;;;;;;;;5.71;100.00;100960.78;5051151;28;19925;-66
2021/04/01 00:06:38;;;;;;;;;;;;;;;5.77;100.00;100960.44;5050882;28;19986;-66
2021/04/01 00:09:04;;;;;;;;;;;;;;;5.82;100.00;100957.47;5051110;28;20279;-66
2021/04/01 00:11:30;;;;;;;;;;;;;;;5.82;100.00;100955.63;5050931;28;19982;-66
2021/04/01 00:13:57;;;;;;;;;;;;;;;5.82;100.00;100954.78;5051157;28;20293;-66
2021/04/01 00:16:23;;;;;;;;;;;;;;;5.83;100.00;100952.00;5050812;28;20288;-66
2021/04/01 00:18:49;;;;;;;;;;;;;;;5.81;100.00;100944.94;5050950;28;19978;-66
2021/04/01 00:21:14;;;;;;;;;;;;;;;5.80;100.00;100946.78;5050757;28;19996;-66
2021/04/01 00:23:40;;;;;;;;;;;;;;;5.77;100.00;100946.97;5053080;28;19925;-65
2021/04/01 00:26:06;;;;;;;;;;;;;;;5.77;100.00;100944.28;5054960;28;19929;-66
2021/04/01 00:28:32;;;;;;;;;;;;;;;5.75;100.00;100943.47;5054766;28;19947;-66
2021/04/01 00:30:58;;;;;;;;;;;;;;;5.72;100.00;100940.97;5055059;28;19951;-65
2021/04/01 00:33:24;;;;;;;;;;;;;;;5.71;100.00;100941.94;5054654;28;19924;-65
2021/04/01 00:35:50;;;;;;;;;;;;;;;5.68;100.00;100942.97;5054358;28;19947;-66
2021/04/01 00:38:16;;;;;;;;;;;;;;;5.68;100.00;100936.72;5054574;28;19925;-65
2021/04/01 00:40:42;;;;;;;;;;;;;;;5.66;100.00;100934.09;5020132;28;20175;-66
2021/04/01 00:43:08;;;;;;;;;;;;;;;5.66;100.00;100927.84;5054922;28;20027;-66
2021/04/01 00:45:34;;;;;;;;;;;;;;;5.64;100.00;100927.09;5054201;28;19931;-65
2021/04/01 00:48:01;;;;;;;;;;;;;;;5.62;100.00;100927.16;5054607;28;19936;-66
2021/04/01 00:50:28;;;;;;;;;;;;;;;5.58;100.00;100924.72;5054136;28;19925;-65
2021/04/01 00:52:54;;;;;;;;;;;;;;;5.52;100.00;100925.97;5054474;28;20078;-65
2021/04/01 00:55:20;;;;;;;;;;;;;;;5.46;100.00;100913.69;5054115;28;19932;-65
2021/04/01 00:57:46;;;;;;;;;;;;;;;5.42;100.00;100917.50;5054131;28;19929;-65
2021/04/01 01:00:14;;;;;;;;;;;;;;;5.43;100.00;100916.56;5054118;28;19924;-66
2021/04/01 01:02:40;;;;;;;;;;;;;;;5.39;100.00;100912.31;5054021;28;19948;-65
2021/04/01 01:05:08;;;;;;;;;;;;;;;5.44;100.00;100909.34;5053939;28;20395;-66
2021/04/01 01:07:34;;;;;;;;;;;;;;;5.48;100.00;100911.78;5054016;28;20312;-66
2021/04/01 01:10:00;;;;;;;;;;;;;;;5.50;100.00;100909.00;5054140;28;19925;-66
2021/04/01 01:12:26;;;;;;;;;;;;;;;5.47;100.00;100909.19;5054001;28;19925;-66
2021/04/01 01:14:52;;;;;;;;;;;;;;;5.39;100.00;100906.94;5053795;28;20019;-65
2021/04/01 01:17:18;;;;;;;;;;;;;;;5.31;100.00;100904.66;5053970;28;19947;-66
2021/04/01 01:19:50;;;;;;;;;;;;;;;5.27;100.00;100902.25;5053696;28;19933;-66
2021/04/01 01:22:18;;;;;;;;;;;;;;;5.29;100.00;100901.22;5053602;28;19925;-67
2021/04/01 01:24:45;;;;;;;;;;;;;;;5.23;100.00;100903.38;5053821;28;19925;-66
2021/04/01 01:27:11;;;;;;;;;;;;;;;5.18;100.00;100904.50;5053771;28;20307;-66
2021/04/01 01:29:37;;;;;;;;;;;;;;;5.17;100.00;100896.47;5053805;28;19925;-66
2021/04/01 01:32:03;;;;;;;;;;;;;;;5.15;100.00;100895.72;5053502;28;19929;-66
2021/04/01 01:34:29;;;;;;;;;;;;;;;5.11;100.00;100897.69;5053133;28;20330;-66
2021/04/01 01:36:55;;;;;;;;;;;;;;;5.05;100.00;100898.06;5053554;28;20290;-66
2021/04/01 01:39:21;;;;;;;;;;;;;;;4.98;100.00;100897.53;5053460;28;20038;-66
2021/04/01 01:41:48;;;;;;;;;;;;;;;5.00;100.00;100898.31;5053536;28;19924;-66
2021/04/01 01:44:13;;;;;;;;;;;;;;;4.99;100.00;100893.00;5053370;28;19986;-66
2021/04/01 01:46:39;;;;;;;;;;;;;;;4.99;100.00;100893.00;5053158;28;20023;-67
2021/04/01 01:49:05;;;;;;;;;;;;;;;5.02;100.00;100882.06;5053156;28;19960;-66
2021/04/01 01:51:31;;;;;;;;;;;;;;;5.07;100.00;100888.06;5053218;28;19928;-66
2021/04/01 01:53:57;;;;;;;;;;;;;;;5.08;100.00;100892.50;5053374;28;19924;-67
2021/04/01 01:56:24;;;;;;;;;;;;;;;5.11;100.00;100895.00;5052887;28;19929;-66
2021/04/01 01:58:51;;;;;;;;;;;;;;;5.16;100.00;100890.25;5053098;28;19929;-66
2021/04/01 02:01:19;;;;;;;;;;;;;;;5.19;100.00;100883.81;5035130;28;19929;-66
2021/04/01 02:03:45;;;;;;;;;;;;;;;5.20;100.00;100886.44;5053018;28;19924;-66
2021/04/01 02:06:11;;;;;;;;;;;;;;;5.25;100.00;100883.50;5052647;28;19924;-66
2021/04/01 02:08:37;;;;;;;;;;;;;;;5.27;100.00;100878.00;5052782;28;19924;-67
2021/04/01 02:11:03;;;;;;;;;;;;;;;5.27;100.00;100878.88;5052996;28;19928;-66
2021/04/01 02:13:29;;;;;;;;;;;;;;;5.29;100.00;100876.09;5052617;28;19932;-66
2021/04/01 02:15:56;;;;;;;;;;;;;;;5.28;100.00;100871.69;5052712;28;19924;-66
2021/04/01 02:18:23;;;;;;;;;;;;;;;5.29;100.00;100878.78;5052595;28;19932;-67
2021/04/01 02:20:49;;;;;;;;;;;;;;;5.28;100.00;100877.06;5052770;28;19931;-66
2021/04/01 02:23:16;;;;;;;;;;;;;;;5.31;100.00;100877.75;5052685;28;19933;-66
2021/04/01 02:25:43;;;;;;;;;;;;;;;5.29;100.00;100876.97;5052351;28;20307;-66
2021/04/01 02:28:10;;;;;;;;;;;;;;;5.28;100.00;100877.94;5052741;28;19935;-66
2021/04/01 02:30:37;;;;;;;;;;;;;;;5.29;100.00;100878.78;5052441;28;19925;-66
2021/04/01 02:33:04;;;;;;;;;;;;;;;5.28;100.00;100879.75;5052589;28;19925;-66
2021/04/01 02:35:30;;;;;;;;;;;;;;;5.32;100.00;100873.25;5052109;28;19925;-66
2021/04/01 02:37:56;;;;;;;;;;;;;;;5.33;100.00;100875.84;5034439;28;19932;-66
2021/04/01 02:40:22;;;;;;;;;;;;;;;5.44;100.00;100874.34;5052271;28;19964;-66
2021/04/01 02:42:48;;;;;;;;;;;;;;;5.53;100.00;100874.69;5052221;28;19929;-67
2021/04/01 02:45:14;;;;;;;;;;;;;;;5.64;100.00;100867.84;5051514;28;20335;-66
2021/04/01 02:47:40;;;;;;;;;;;;;;;5.75;100.00;100867.19;5051781;28;20307;-67
2021/04/01 02:50:08;;;;;;;;;;;;;;;5.80;100.00;100871.34;5052243;28;19924;-67
2021/04/01 02:52:36;;;;;;;;;;;;;;;5.83;100.00;100867.59;5052196;28;20035;-67
2021/04/01 02:55:03;;;;;;;;;;;;;;;5.85;100.00;100854.91;5052793;28;19951;-65
2021/04/01 02:57:29;;;;;;;;;;;;;;;5.90;100.00;100858.19;5052471;28;19925;-66
2021/04/01 02:59:55;;;;;;;;;;;;;;;5.92;100.00;100868.88;5051902;28;20001;-66
2021/04/01 03:02:23;;;;;;;;;;;;;;;5.95;100.00;100861.50;5052093;28;19924;-65
2021/04/01 03:04:49;;;;;;;;;;;;;;;5.98;100.00;100860.47;5051786;28;20157;-65
2021/04/01 03:07:15;;;;;;;;;;;;;;;6.04;100.00;100852.03;5051914;28;20375;-66
2021/04/01 03:09:41;;;;;;;;;;;;;;;6.16;100.00;100845.00;5051761;28;19932;-65
2021/04/01 03:12:08;;;;;;;;;;;;;;;6.24;100.00;100833.75;5034150;28;19929;-67
2021/04/01 03:14:33;;;;;;;;;;;;;;;6.29;100.00;100827.09;5051778;28;20396;-67
2021/04/01 03:16:59;;;;;;;;;;;;;;;6.32;100.00;100831.44;5051458;28;19964;-67
2021/04/01 03:19:25;;;;;;;;;;;;;;;6.34;100.00;100843.88;5051714;28;19968;-67
2021/04/01 03:21:51;;;;;;;;;;;;;;;6.38;100.00;100841.00;5051803;28;19925;-67
2021/04/01 03:24:18;;;;;;;;;;;;;;;6.33;100.00;100838.59;5051650;28;19929;-67
2021/04/01 03:26:44;;;;;;;;;;;;;;;6.33;100.00;100843.97;5051154;28;19925;-66
2021/04/01 03:29:10;;;;;;;;;;;;;;;6.36;100.00;100852.75;5051172;28;20015;-67
2021/04/01 03:31:36;;;;;;;;;;;;;;;6.42;100.00;100843.41;5017085;28;19982;-67
2021/04/01 03:34:02;;;;;;;;;;;;;;;6.46;100.00;100842.25;5051464;28;19925;-67
2021/04/01 03:36:28;;;;;;;;;;;;;;;6.50;100.00;100843.78;5051048;28;20387;-67
2021/04/01 03:38:54;;;;;;;;;;;;;;;6.49;100.00;100842.09;5051713;28;19994;-67
2021/04/01 03:41:21;;;;;;;;;;;;;;;6.48;100.00;100839.47;5051165;28;19932;-67
2021/04/01 03:43:47;;;;;;;;;;;;;;;6.49;100.00;100844.78;5051456;28;19925;-67
2021/04/01 03:46:13;;;;;;;;;;;;;;;6.52;100.00;100844.59;5050874;28;20062;-67
2021/04/01 03:48:39;;;;;;;;;;;;;;;6.54;100.00;100842.63;5051267;28;19936;-67
2021/04/01 03:51:05;;;;;;;;;;;;;;;6.56;100.00;100849.78;5051406;28;19933;-67
2021/04/01 03:53:31;;;;;;;;;;;;;;;6.53;100.00;100846.31;5051213;28;19931;-68
2021/04/01 03:55:57;;;;;;;;;;;;;;;6.54;100.00;100831.84;5051022;28;20355;-65
2021/04/01 03:58:41;;;;;;;;;;;;;;;6.54;100.00;100839.94;5050646;28;19971;-65
2021/04/01 04:01:28;;;;;;;;;;;;;;;6.50;100.00;100835.72;5051026;28;19924;-66
2021/04/01 04:04:03;;;;;;;;;;;;;;;6.50;100.00;100841.09;5051177;28;20315;-66
2021/04/01 04:06:48;;;;;;;;;;;;;;;6.51;100.00;100842.84;5050670;28;20332;-67
2021/04/01 04:09:32;;;;;;;;;;;;;;;6.51;100.00;100845.53;5050981;28;20024;-66
2021/04/01 04:12:06;;;;;;;;;;;;;;;6.52;100.00;100838.31;5051169;28;19986;-67
2021/04/01 04:14:35;;;;;;;;;;;;;;;6.56;100.00;100839.88;5049623;28;20032;-67
2021/04/01 04:17:01;;;;;;;;;;;;;;;6.62;100.00;100835.91;5051519;28;20362;-68
2021/04/01 04:19:27;;;;;;;;;;;;;;;6.63;100.00;100834.97;5033522;28;19925;-67
2021/04/01 04:21:53;;;;;;;;;;;;;;;6.75;100.00;100844.97;5032533;28;19947;-67
2021/04/01 04:24:19;;;;;;;;;;;;;;;6.83;100.00;100837.25;5036943;28;20012;-67
2021/04/01 04:26:45;;;;;;;;;;;;;;;6.95;100.00;100832.00;5052910;28;19935;-67
2021/04/01 04:29:11;;;;;;;;;;;;;;;7.01;100.00;100832.47;5051312;28;20023;-67
2021/04/01 04:31:38;;;;;;;;;;;;;;;7.10;100.00;100827.47;5034031;28;19925;-67
2021/04/01 04:34:04;;;;;;;;;;;;;;;7.21;100.00;100819.53;5034236;28;20027;-67
2021/04/01 04:36:30;;;;;;;;;;;;;;;7.27;100.00;100827.25;5052674;28;19925;-67
2021/04/01 04:38:55;;;;;;;;;;;;;;;7.26;100.00;100819.25;5051255;28;20459;-67
2021/04/01 04:41:21;;;;;;;;;;;;;;;7.27;100.00;100820.94;5048682;28;19924;-69
2021/04/01 04:43:47;;;;;;;;;;;;;;;7.28;100.00;100823.56;5051092;28;19948;-67
2021/04/01 04:46:13;;;;;;;;;;;;;;;7.27;100.00;100821.84;5033077;28;19929;-67
2021/04/01 04:48:40;;;;;;;;;;;;;;;7.28;100.00;100823.56;5030606;28;20244;-66
2021/04/01 04:51:06;;;;;;;;;;;;;;;7.36;100.00;100821.22;5031779;28;19933;-66
2021/04/01 04:53:32;;;;;;;;;;;;;;;7.41;100.00;100815.50;5037061;28;19925;-66
2021/04/01 04:56:07;;;;;;;;;;;;;;;7.40;100.00;100813.78;5050429;28;19971;-66
2021/04/01 04:58:37;;;;;;;;;;;;;;;7.42;100.00;100817.25;5043732;28;19925;-66
2021/04/01 05:01:06;;;;;;;;;;;;;;;7.45;100.00;100822.44;5039519;28;19925;-66
2021/04/01 05:06:31;;;;;;;;;;;;;;;7.49;100.00;100828.50;5028894;28;19924;-66
2021/04/01 05:08:57;;;;;;;;;;;;;;;7.56;100.00;100829.81;5042333;28;20351;-66
2021/04/01 05:11:24;;;;;;;;;;;;;;;7.63;100.00;100835.69;5037775;28;19925;-66
2021/04/01 05:13:50;;;;;;;;;;;;;;;7.61;100.00;100838.50;5052050;28;20094;-66
2021/04/01 05:16:16;;;;;;;;;;;;;;;7.57;100.00;100838.81;5050668;28;19925;-66
2021/04/01 05:18:42;;;;;;;;;;;;;;;7.61;100.00;100833.09;5033752;28;20306;-66
2021/04/01 05:21:08;;;;;;;;;;;;;;;7.71;100.00;100834.22;5034427;28;19925;-66
2021/04/01 05:23:37;;;;;;;;;;;;;;;7.78;100.00;100834.66;5053460;28;19929;-67
2021/04/01 05:26:25;;;;;;;;;;;;;;;7.87;100.00;100833.19;5054083;28;20379;-66
2021/04/01 05:28:54;;;;;;;;;;;;;;;7.98;100.00;100832.44;5050523;28;19925;-66
2021/04/01 05:31:22;;;;;;;;;;;;;;;8.10;100.00;100828.03;5051951;28;19995;-66
2021/04/01 05:33:49;;;;;;;;;;;;;;;8.18;100.00;100831.06;5050068;28;20179;-66
2021/04/01 05:36:20;;;;;;;;;;;;;;;8.27;100.00;100837.66;5052353;28;20059;-66
2021/04/01 05:38:46;;;;;;;;;;;;;;;8.36;100.00;100842.41;5053455;28;20027;-66
2021/04/01 05:41:12;;;;;;;;;;;;;;;8.46;100.00;100840.00;5052835;28;19925;-66
2021/04/01 05:43:42;;;;;;;;;;;;;;;8.54;100.00;100837.59;5053266;28;19925;-66
2021/04/01 05:46:14;;;;;;;;;;;;;;;8.66;100.00;100830.44;5048234;28;19924;-66
2021/04/01 05:48:44;;;;;;;;;;;;;;;8.78;100.00;100826.84;5043932;28;19924;-65
2021/04/01 05:51:31;;;;;;;;;;;;;;;8.87;100.00;100826.19;5051709;28;19925;-65
2021/04/01 05:57:20;;;;;;;;;;;;;;;8.98;100.00;100829.94;5046392;28;20426;-66
2021/04/01 06:00:13;;;;;;;;;;;;;;;9.07;100.00;100840.09;5054726;28;20474;-65
2021/04/01 06:02:47;;;;;;;;;;;;;;;9.24;100.00;100840.72;5048813;28;20358;-64
2021/04/01 06:05:20;;;;;;;;;;;;;;;9.35;100.00;100840.78;5034117;28;20012;-64
2021/04/01 06:07:46;;;;;;;;;;;;;;;9.40;100.00;100849.44;5031610;28;19929;-64
2021/04/01 06:10:17;;;;;;;;;;;;;;;9.48;100.00;100844.31;5035208;28;19939;-64
2021/04/01 06:12:44;;;;;;;;;;;;;;;9.57;100.00;100839.16;5033485;28;19929;-64
2021/04/01 06:15:12;;;;;;;;;;;;;;;9.65;100.00;100853.03;5039223;28;19929;-65
2021/04/01 06:17:44;;;;;;;;;;;;;;;9.71;100.00;100863.38;5033403;28;19925;-65
2021/04/01 06:20:10;;;;;;;;;;;;;;;9.86;100.00;100870.38;5052533;28;19932;-65
2021/04/01 06:22:39;;;;;;;;;;;;;;;10.00;100.00;100861.16;5052673;28;19924;-66
2021/04/01 06:25:10;;;;;;;;;;;;;;;10.14;100.00;100862.84;5014624;28;19929;-67
2021/04/01 06:27:40;;;;;;;;;;;;;;;10.24;100.00;100860.28;5032513;28;19956;-68
2021/04/01 06:30:16;;;;;;;;;;;;;;;10.33;100.00;100866.84;5052656;28;20058;-65
2021/04/01 06:32:44;;;;;;;;;;;;;;;10.44;100.00;100863.31;5050555;28;19932;-65
2021/04/01 06:35:12;;;;;;;;;;;;;;;10.55;100.00;100861.50;5052509;28;19928;-65
2021/04/01 06:37:55;;;;;;;;;;;;;;;10.68;100.00;100861.34;5037029;28;19925;-65
2021/04/01 06:40:21;;;;;;;;;;;;;;;10.78;100.00;100864.19;5037709;28;19936;-65
2021/04/01 06:42:52;;;;;;;;;;;;;;;10.88;100.00;100862.47;5043752;28;19995;-64
2021/04/01 06:45:21;;;;;;;;;;;;;;;11.07;100.00;100871.84;5033324;28;19933;-63
2021/04/01 06:47:50;;;;;;;;;;;;;;;11.22;100.00;100865.19;5046251;28;19929;-65
2021/04/01 06:50:20;;;;;;;;;;;;;;;11.36;100.00;100860.47;5050536;28;19970;-63
2021/04/01 06:52:50;;;;;;;;;;;;;;;11.47;100.00;100857.72;5050449;28;20023;-64
2021/04/01 06:55:21;;;;;;;;;;;;;;;11.45;100.00;100861.56;5038429;28;19932;-66
2021/04/01 06:58:05;;;;;;;;;;;;;;;11.45;100.00;100865.16;5032904;28;19937;-65
2021/04/01 07:00:39;;;;;;;;;;;;;;;11.44;100.00;100868.84;5044027;28;19925;-65
2021/04/01 07:03:11;;;;;;;;;;;;;;;11.45;100.00;100883.28;5040529;28;19932;-64
2021/04/01 07:05:47;;;;;;;;;;;;;;;11.52;100.00;100882.66;5013965;28;19929;-64
2021/04/01 07:08:13;;;;;;;;;;;;;;;11.63;100.00;100886.34;5044318;28;19925;-64
2021/04/01 07:10:44;;;;;;;;;;;;;;;11.72;100.00;100888.31;5034984;28;19952;-64
2021/04/01 07:13:16;;;;;;;;;;;;;;;11.75;100.00;100887.19;5037122;28;19925;-64
2021/04/01 07:15:45;;;;;;;;;;;;;;;11.78;100.00;100897.81;5026371;28;19925;-64
2021/04/01 07:18:26;;;;;;;;;;;;;;;11.86;100.00;100885.28;5031778;28;19926;-63
2021/04/01 07:48:34;;;;;;;;;;;;;;;13.48;100.00;100870.38;5044453;28;19990;-64
2021/04/01 07:51:00;;;;;;;;;;;;;;;13.59;100.00;100853.00;5048606;28;20388;-65
2021/04/01 07:53:27;;;;;;;;;;;;;;;13.65;99.24;100841.50;5033080;28;19925;-64
2021/04/01 07:56:04;;;;;;;;;;;;;;;13.80;100.00;100849.28;5049571;28;20303;-66
2021/04/01 08:01:17;;;;;;;;;;;;;;;14.05;100.00;100826.88;5050276;28;19925;-64
2021/04/01 08:03:53;;;;;;;;;;;;;;;13.90;100.00;100812.81;5046487;28;19932;-64
2021/04/01 08:06:23;;;;;;;;;;;;;;;14.26;100.00;100828.59;5039258;28;19971;-64
2021/04/01 08:08:50;;;;;;;;;;;;;;;14.76;99.39;100813.81;5046914;28;20011;-64
2021/04/01 08:11:25;;;;;;;;;;;;;;;15.49;93.03;100807.50;5050378;28;19925;-64
2021/04/01 08:14:02;;;;;;;;;;;;;;;15.92;84.62;100801.44;5017269;28;19933;-64
2021/04/01 08:16:28;;;;;;;;;;;;;;;16.10;78.20;100805.03;5033460;28;19925;-63
2021/04/01 08:18:58;;;;;;;;;;;;;;;15.98;78.98;100806.28;5050899;28;19933;-63
2021/04/01 08:21:25;;;;;;;;;;;;;;;15.65;70.84;100782.19;5004580;28;19933;-64
2021/04/01 08:23:59;;;;;;;;;;;;;;;15.40;81.35;100795.59;5028437;28;20454;-63
2021/04/01 08:26:38;;;;;;;;;;;;;;;15.15;85.76;100819.09;5024353;28;19925;-64
2021/04/01 08:29:24;;;;;;;;;;;;;;;14.88;82.76;100790.75;5046899;28;19947;-64
2021/04/01 08:32:13;;;;;;;;;;;;;;;14.65;86.22;100801.19;5037914;28;20043;-64
2021/04/01 08:34:41;;;;;;;;;;;;;;;14.50;92.02;100789.84;5047236;28;19935;-64
2021/04/01 08:37:09;;;;;;;;;;;;;;;14.34;100.00;100782.28;5049805;28;19975;-63
2021/04/01 08:39:35;;;;;;;;;;;;;;;14.14;100.00;100797.00;5031932;28;19967;-63
2021/04/01 08:42:20;;;;;;;;;;;;;;;13.98;100.00;100782.06;5050534;28;19925;-71
2021/04/01 08:45:03;;;;;;;;;;;;;;;13.85;100.00;100776.91;5041264;28;19925;-64
2021/04/01 08:47:32;;;;;;;;;;;;;;;13.83;100.00;100781.66;5033982;28;19926;-63
2021/04/01 08:50:09;;;;;;;;;;;;;;;13.75;100.00;100797.91;5051072;28;19978;-64
2021/04/01 08:52:54;;;;;;;;;;;;;;;13.67;100.00;100805.91;5054631;28;19929;-63
2021/04/01 08:55:20;;;;;;;;;;;;;;;13.67;100.00;100814.09;5033686;28;19926;-65
2021/04/01 08:57:54;;;;;;;;;;;;;;;13.61;100.00;100837.34;5035526;28;19925;-65
2021/04/01 09:00:22;;;;;;;;;;;;;;;13.48;100.00;100851.28;5017155;28;20392;-64
2021/04/01 09:02:48;;;;;;;;;;;;;;;13.47;99.98;100843.22;5054028;28;19964;-64
2021/04/01 09:05:15;;;;;;;;;;;;;;;13.51;100.00;100855.59;5047959;28;20403;-64
2021/04/01 09:07:43;;;;;;;;;;;;;;;13.53;100.00;100857.13;5046777;28;20445;-64
2021/04/01 09:10:14;;;;;;;;;;;;;;;13.66;100.00;100839.66;5030942;28;20379;-64
2021/04/01 09:12:42;;;;;;;;;;;;;;;13.71;100.00;100856.47;5034292;28;19936;-64
2021/04/01 09:15:13;;;;;;;;;;;;;;;13.76;100.00;100850.56;5051615;28;19924;-64
2021/04/01 09:17:39;;;;;;;;;;;;;;;13.83;100.00;100849.88;5053206;28;20300;-65
2021/04/01 09:20:12;;;;;;;;;;;;;;;13.87;100.00;100851.31;5051845;28;19932;-67
2021/04/01 09:22:43;;;;;;;;;;;;;;;13.90;100.00;100845.56;5051206;28;20003;-65
2021/04/01 09:25:09;;;;;;;;;;;;;;;13.93;100.00;100854.47;5049435;28;19971;-64
2021/04/01 09:27:43;;;;;;;;;;;;;;;13.87;100.00;100866.81;5049973;28;19940;-64
2021/04/01 09:30:09;;;;;;;;;;;;;;;13.68;100.00;100868.53;5049846;28;20400;-65
2021/04/01 09:32:36;;;;;;;;;;;;;;;13.65;100.00;100862.50;5032041;28;19934;-64
2021/04/01 09:35:03;;;;;;;;;;;;;;;13.56;100.00;100864.19;5050419;28;20342;-65
2021/04/01 09:37:29;;;;;;;;;;;;;;;13.62;100.00;100871.81;5050393;28;19924;-65
2021/04/01 09:40:06;;;;;;;;;;;;;;;13.59;100.00;100854.84;5049946;28;19971;-62
2021/04/01 09:42:37;;;;;;;;;;;;;;;13.75;100.00;100848.84;5053402;28;19924;-64
2021/04/01 09:45:03;;;;;;;;;;;;;;;14.00;100.00;100866.53;5038032;28;20388;-63
2021/04/01 09:47:34;;;;;;;;;;;;;;;14.18;100.00;100869.41;5032984;28;19979;-64
2021/04/01 09:50:02;;;;;;;;;;;;;;;14.36;100.00;100856.75;5045076;28;20005;-64
2021/04/01 09:52:29;;;;;;;;;;;;;;;14.40;100.00;100849.09;5046946;28;19925;-65
2021/04/01 09:54:57;;;;;;;;;;;;;;;14.36;100.00;100859.47;5034014;28;19935;-63
2021/04/01 09:57:37;;;;;;;;;;;;;;;14.22;100.00;100858.03;5048316;28;19925;-63
2021/04/01 10:00:11;;;;;;;;;;;;;;;14.35;100.00;100854.13;5047924;28;20418;-63
2021/04/01 10:02:40;;;;;;;;;;;;;;;14.30;100.00;100851.00;5044953;28;20436;-63
2021/04/01 10:05:06;;;;;;;;;;;;;;;14.35;100.00;100841.38;5034312;28;19929;-63
2021/04/01 10:07:34;;;;;;;;;;;;;;;14.28;100.00;100839.34;5072089;28;19928;-64
2021/04/01 10:10:02;;;;;;;;;;;;;;;14.30;100.00;100840.94;5071739;28;20296;-64
2021/04/01 10:12:36;;;;;;;;;;;;;;;14.49;100.00;100839.19;5033913;28;19936;-63
2021/04/01 10:15:08;;;;;;;;;;;;;;;14.76;100.00;100827.47;5040195;28;19931;-62
2021/04/01 10:17:34;;;;;;;;;;;;;;;14.88;96.46;100822.66;5044501;28;19979;-64
2021/04/01 10:20:02;;;;;;;;;;;;;;;15.04;94.54;100822.03;5015264;28;19940;-64
2021/04/01 10:22:28;;;;;;;;;;;;;;;15.32;91.46;100824.75;5032171;28;20013;-64
2021/04/01 10:25:13;;;;;;;;;;;;;;;15.52;93.74;100839.16;5032815;28;19925;-65
2021/04/01 10:27:45;;;;;;;;;;;;;;;15.69;90.95;100845.69;5039067;28;20012;-64
2021/04/01 10:30:12;;;;;;;;;;;;;;;15.74;89.33;100840.59;5051638;28;19947;-66
2021/04/01 10:32:40;;;;;;;;;;;;;;;15.63;88.27;100833.47;5053607;28;19924;-65
2021/04/01 10:35:07;;;;;;;;;;;;;;;15.56;87.86;100838.69;5038552;28;19952;-66
2021/04/01 10:37:33;;;;;;;;;;;;;;;15.35;88.45;100832.63;5049146;28;20343;-65
2021/04/01 10:39:59;;;;;;;;;;;;;;;15.21;91.70;100843.09;5034537;28;19978;-63
2021/04/01 10:42:27;;;;;;;;;;;;;;;15.06;92.68;100837.25;5048159;28;19936;-63
2021/04/01 10:44:57;;;;;;;;;;;;;;;15.11;95.40;100831.31;5056265;28;19978;-63
2021/04/01 10:47:25;;;;;;;;;;;;;;;15.14;94.89;100838.38;5037176;28;20376;-64
2021/04/01 10:49:51;;;;;;;;;;;;;;;15.30;95.32;100830.38;5039734;28;19956;-63
2021/04/01 10:52:17;;;;;;;;;;;;;;;15.51;94.81;100830.09;5051862;28;19948;-65
2021/04/01 10:54:44;;;;;;;;;;;;;;;15.78;90.50;100811.91;5046901;28;20376;-64
2021/04/01 10:57:11;;;;;;;;;;;;;;;15.92;88.32;100793.25;5033261;28;19925;-63
2021/04/01 10:59:39;;;;;;;;;;;;;;;15.83;86.29;100809.59;5051731;28;19952;-64
2021/04/01 11:02:10;;;;;;;;;;;;;;;15.77;84.35;100821.13;5038849;28;19932;-63
2021/04/01 11:04:36;;;;;;;;;;;;;;;15.63;85.02;100808.84;5031642;28;19925;-65
2021/04/01 11:07:03;;;;;;;;;;;;;;;15.16;89.57;100749.72;5031871;28;19925;-64
2021/04/01 11:09:29;;;;;;;;;;;;;;;14.72;100.00;100746.81;5038337;28;19925;-64
2021/04/01 11:12:13;;;;;;;;;;;;;;;14.50;100.00;100737.97;5036858;28;19984;-63
2021/04/01 11:14:40;;;;;;;;;;;;;;;14.44;100.00;100740.44;5048844;28;19931;-64
2021/04/01 11:17:07;;;;;;;;;;;;;;;14.55;100.00;100735.66;5031493;28;19929;-63
2021/04/01 11:19:33;;;;;;;;;;;;;;;14.81;100.00;100755.97;5038456;28;19926;-63
2021/04/01 11:22:02;;;;;;;;;;;;;;;15.26;99.09;100740.59;5038620;28;20034;-64
2021/04/01 11:24:28;;;;;;;;;;;;;;;15.92;92.29;100738.50;5045153;28;20399;-65
2021/04/01 11:26:54;;;;;;;;;;;;;;;16.55;88.92;100738.22;5031085;28;20012;-63
2021/04/01 11:29:20;;;;;;;;;;;;;;;16.89;80.74;100745.56;5033934;28;20036;-63
2021/04/01 11:31:47;;;;;;;;;;;;;;;17.29;81.61;100748.63;5033328;28;19929;-63
2021/04/01 11:34:13;;;;;;;;;;;;;;;17.60;73.56;100755.31;5032410;28;19928;-63
2021/04/01 11:36:41;;;;;;;;;;;;;;;17.52;75.24;100742.47;5050187;28;19924;-63
2021/04/01 11:39:24;;;;;;;;;;;;;;;17.49;74.56;100743.66;5050725;28;19979;-63
2021/04/01 11:41:50;;;;;;;;;;;;;;;17.34;75.66;100740.75;5044564;28;19928;-63
2021/04/01 11:44:17;;;;;;;;;;;;;;;17.22;77.82;100739.31;5048149;28;19952;-64
2021/04/01 11:46:43;;;;;;;;;;;;;;;16.99;71.90;100739.09;5047745;28;19928;-64
2021/04/01 11:49:10;;;;;;;;;;;;;;;16.88;73.39;100738.34;5050426;28;20399;-64
2021/04/01 11:51:36;;;;;;;;;;;;;;;16.93;74.83;100743.38;5040207;28;19936;-64
2021/04/01 11:54:02;;;;;;;;;;;;;;;17.00;73.17;100751.78;5049652;28;19925;-65
2021/04/01 11:56:34;;;;;;;;;;;;;;;17.17;77.20;100748.06;5045777;28;19925;-64
2021/04/01 11:59:05;;;;;;;;;;;;;;;17.33;74.67;100754.59;5030839;28;20373;-64
2021/04/01 12:01:33;;;;;;;;;;;;;;;17.12;66.76;100755.94;5039108;28;19925;-64
2021/04/01 12:04:02;;;;;;;;;;;;;;;17.10;67.81;100768.94;5050714;28;19929;-64
2021/04/01 12:06:30;;;;;;;;;;;;;;;17.05;70.26;100771.34;5046316;28;20391;-64
2021/04/01 12:08:57;;;;;;;;;;;;;;;16.93;73.81;100805.56;5031113;28;20341;-63
2021/04/01 12:11:23;;;;;;;;;;;;;;;16.88;77.90;100809.63;5022124;28;19978;-63
2021/04/01 12:13:49;;;;;;;;;;;;;;;17.07;80.35;100805.78;5047132;28;20016;-64
2021/04/01 12:16:16;;;;;;;;;;;;;;;16.94;79.34;100799.91;5030542;28;19925;-63
2021/04/01 12:18:42;;;;;;;;;;;;;;;17.00;84.14;100812.97;5033640;28;19929;-64
2021/04/01 12:21:08;;;;;;;;;;;;;;;17.24;85.32;100816.81;5034893;28;19925;-63
2021/04/01 12:23:41;;;;;;;;;;;;;;;17.37;84.65;100810.84;5035355;28;19939;-64
2021/04/01 12:26:07;;;;;;;;;;;;;;;17.39;80.54;100808.81;5029672;28;19967;-64
2021/04/01 12:28:33;;;;;;;;;;;;;;;17.35;84.07;100813.75;5054914;28;19925;-63
2021/04/01 12:30:59;;;;;;;;;;;;;;;16.94;85.33;100815.50;5043841;28;19925;-63
2021/04/01 12:33:26;;;;;;;;;;;;;;;16.47;87.03;100814.84;5054521;28;20407;-64
2021/04/01 12:35:52;;;;;;;;;;;;;;;16.08;85.04;100808.94;5045173;28;19929;-63
2021/04/01 12:38:25;;;;;;;;;;;;;;;16.03;83.20;100814.88;5046911;28;19975;-64
2021/04/01 12:40:52;;;;;;;;;;;;;;;15.86;86.76;100822.97;5053131;28;19995;-65
2021/04/01 12:43:18;;;;;;;;;;;;;;;15.80;90.32;100801.69;5054669;28;19968;-64
2021/04/01 12:45:53;;;;;;;;;;;;;;;15.72;89.91;100804.31;5053038;28;19937;-63
2021/04/01 12:48:18;;;;;;;;;;;;;;;15.62;91.66;100806.25;5038812;28;20023;-65
2021/04/01 12:50:49;;;;;;;;;;;;;;;15.54;97.93;100788.75;5052919;28;19935;-65
2021/04/01 12:53:16;;;;;;;;;;;;;;;15.63;100.00;100783.34;5053914;28;19925;-65
2021/04/01 12:55:45;;;;;;;;;;;;;;;15.72;100.00;100768.75;5052315;28;19929;-64
2021/04/01 12:58:22;;;;;;;;;;;;;;;15.87;100.00;100780.00;5054224;28;19970;-65
2021/04/01 13:00:51;;;;;;;;;;;;;;;16.05;100.00;100780.00;5035826;28;19983;-63
2021/04/01 13:03:17;;;;;;;;;;;;;;;17.11;94.28;100772.56;5053965;28;20461;-65
2021/04/01 13:05:44;;;;;;;;;;;;;;;18.17;84.36;100776.47;5051714;28;19929;-65
2021/04/01 13:08:34;;;;;;;;;;;;;;;18.78;67.13;100781.50;5052529;28;19928;-64
2021/04/01 13:11:01;;;;;;;;;;;;;;;19.81;63.30;100774.94;5033853;28;20399;-65
2021/04/01 13:13:27;;;;;;;;;;;;;;;19.69;58.91;100768.13;5034688;28;19936;-64
2021/04/01 13:15:53;;;;;;;;;;;;;;;19.26;59.62;100776.00;5051856;28;19928;-64
2021/04/01 13:18:19;;;;;;;;;;;;;;;18.04;60.32;100772.38;5053002;28;20293;-64